Terminal Aerodrome Forecast
Issued by NWS Charleston, WV

Current Version | Previous Version | Text Only | Print | Product List | Glossary Off
Versions: 1 2 3 4 5 6 7 8 9 10 11 12 13 14 15 16 17 18 19 20 21 22 23 24

000
FTUS41 KRLX 232320
TAFCRW
TAF
KCRW 232320Z 2400/2424 VRB03KT P6SM FEW250
     FM240900 00000KT 6SM BR FEW250
     FM241200 VRB03KT P6SM SCT150
     FM241500 33005KT P6SM SCT050=

USA.gov is the U.S. government's official web portal to all federal, state and local government web resources and services.